Accueil
METAR-TAF:

METAR-TAF

Aéroports :

Aéroport du comté d'Antrim

Bellaire, Michigan, États-Unis

latitude: 44-59-18N, longitude: 085-11-54W, altitude: 190 m

Observation

Le bulletin a été fait il y a 17 minutes, à 05:55 UTC
Vent 4 kt de sud
Température -7°C
Humidité 79%
Pression 1015 hPa
Visibilité: 3.2 km
Ciel couvert à une hauteur de 1500 ft
neige faible

METAR: KACB 080555Z AUTO 18004KT 2SM -SN OVC015 M07/M10 A2997 RMK AO2 T10731097 11073 21085 410631086

Heure: 01:12 (06:12 UTC)


TAF: absent

Observations et prévisions météorologiques de plus de 4000 aéroports (messages METAR et TAF).

Les stations disponibles sont représentées par des disques jaunes et rouges sur la carte.

Passer la souris dessus pour voir le nom de la station.

Cliquer dessus pour voir les observations et prévisions météorologiques.

Pour changer de carte: cliquez sur les boutons verts avec une croix noire pour zoomer, sur le bouton vert avec un tiret pour effectuer un zoom arrière, ou sur les flèches vertes pour les cartes adjacentes.


METAR-TAF: